Time;durP1;ratioP1;P1;durP2;ratioP2;P2;SDS_P1;SDS_P2;PMS_P1;PMS_P2;Temp;Humidity;BMP_temperature;BMP_pressure;BME280_temperature;BME280_humidity;BME280_pressure;Samples;Min_cycle;Max_cycle;Signal;HPM_P1;HPM_P2
2021/08/03 00:00:06;;;;;;;;;;;11.60;99.90;;;10.07;95.56;101114.47;3550648;39;102219;-39
2021/08/03 00:02:42;;;;;;;;;;;11.60;99.90;;;10.04;95.20;101110.28;3550638;39;102193;-39
2021/08/03 00:05:24;;;;;;;;;;;11.60;99.90;;;10.01;95.18;101123.47;3549757;39;102151;-39
2021/08/03 00:07:59;;;;;;;;;;;11.60;99.90;;;9.98;94.91;101119.28;3549900;39;102158;-41
2021/08/03 00:10:28;;;;;;;;;;;11.50;99.90;;;9.97;95.21;101116.75;3550680;39;102801;-39
2021/08/03 00:12:56;;;;;;;;;;;11.50;99.90;;;9.93;95.04;101122.59;3550165;39;102113;-41
2021/08/03 00:15:23;;;;;;;;;;;11.50;99.90;;;9.90;94.47;101125.75;3550245;39;102394;-39
2021/08/03 00:17:54;;;;;;;;;;;11.50;99.90;;;9.87;94.60;101122.56;3550253;39;102145;-39
2021/08/03 00:20:23;;;;;;;;;;;11.40;99.90;;;9.86;95.08;101113.56;3550549;39;102232;-38
2021/08/03 00:22:55;;;;;;;;;;;11.40;99.90;;;9.86;95.10;101116.28;3550214;39;103061;-39
2021/08/03 00:25:25;;;;;;;;;;;11.40;99.90;;;9.81;94.71;101113.28;3549967;39;103606;-39
2021/08/03 00:27:54;;;;;;;;;;;11.40;99.90;;;9.82;94.71;101117.72;3550113;39;103076;-39
2021/08/03 00:30:23;;;;;;;;;;;11.30;99.90;;;9.82;94.89;101112.28;3549850;39;102352;-39
2021/08/03 00:32:53;;;;;;;;;;;11.30;99.90;;;9.82;94.90;101101.38;3550496;39;103083;-39
2021/08/03 00:35:22;;;;;;;;;;;11.40;99.90;;;9.84;95.19;101095.72;3549696;39;102944;-39
2021/08/03 00:37:50;;;;;;;;;;;11.40;99.90;;;9.86;95.63;101097.22;3540864;39;104018;-39
2021/08/03 00:40:19;;;;;;;;;;;11.40;99.90;;;9.87;96.27;101098.88;3550365;39;102895;-39
2021/08/03 00:42:49;;;;;;;;;;;11.40;99.90;;;9.84;96.20;101099.28;3540822;39;103122;-39
2021/08/03 00:45:17;;;;;;;;;;;11.40;99.90;;;9.85;95.85;101095.53;3550711;39;102232;-39
2021/08/03 00:47:48;;;;;;;;;;;11.40;99.90;;;9.85;96.11;101098.25;3550367;39;102327;-39
2021/08/03 00:50:17;;;;;;;;;;;11.40;99.90;;;9.86;96.51;101088.19;3549949;39;102973;-39
2021/08/03 00:52:44;;;;;;;;;;;11.40;99.90;;;9.85;96.42;101097.38;3549962;39;102558;-39
2021/08/03 00:55:13;;;;;;;;;;;11.40;99.90;;;9.85;96.44;101100.13;3549880;39;102614;-39
2021/08/03 00:57:47;;;;;;;;;;;11.30;99.90;;;9.85;96.16;101087.34;3549892;39;102660;-39
2021/08/03 01:00:16;;;;;;;;;;;11.40;99.90;;;9.84;96.13;101093.84;3541053;39;102193;-39
2021/08/03 01:02:44;;;;;;;;;;;11.40;99.90;;;9.87;96.51;101079.81;3540808;39;103139;-39
2021/08/03 01:05:12;;;;;;;;;;;11.40;99.90;;;9.92;97.34;101084.63;3550257;39;102189;-39
2021/08/03 01:07:49;;;;;;;;;;;11.40;99.90;;;9.90;97.29;101087.56;3540470;39;105851;-39
2021/08/03 01:10:45;;;;;;;;;;;11.50;99.90;;;9.90;97.45;101089.44;3550219;39;102279;-39
2021/08/03 01:13:37;;;;;;;;;;;11.50;99.90;;;9.90;97.15;101095.75;3540938;39;102198;-38
2021/08/03 01:16:09;;;;;;;;;;;11.40;99.90;;;9.93;97.50;101089.91;3540744;39;102340;-39
2021/08/03 01:18:59;;;;;;;;;;;11.40;99.90;;;9.95;97.51;101081.53;3549748;39;103425;-39
2021/08/03 01:21:52;;;;;;;;;;;11.50;99.90;;;9.96;97.80;101080.50;3540511;39;102431;-39
2021/08/03 01:24:43;;;;;;;;;;;11.50;99.90;;;10.00;98.02;101075.47;3549384;39;103288;-38
2021/08/03 01:27:16;;;;;;;;;;;11.50;99.90;;;10.02;98.00;101073.38;3550014;39;102360;-39
2021/08/03 01:29:46;;;;;;;;;;;11.50;99.90;;;10.04;98.15;101087.63;3540744;39;103114;-38
2021/08/03 01:32:25;;;;;;;;;;;11.60;99.90;;;10.06;97.93;101083.66;3549680;39;102199;-42
2021/08/03 01:34:55;;;;;;;;;;;11.50;99.90;;;10.06;98.18;101077.38;3540431;39;104179;-39
2021/08/03 01:37:26;;;;;;;;;;;11.50;99.90;;;10.03;97.95;101073.19;3550096;39;102202;-39
2021/08/03 01:40:13;;;;;;;;;;;11.60;99.90;;;10.10;97.93;101083.25;3540794;39;103065;-39
2021/08/03 01:42:45;;;;;;;;;;;11.60;99.90;;;10.12;98.25;101082.03;3549847;39;102748;-39
2021/08/03 01:45:17;;;;;;;;;;;11.60;99.90;;;10.17;98.66;101078.66;3549582;39;103537;-39
2021/08/03 01:47:44;;;;;;;;;;;11.70;99.90;;;10.20;98.96;101079.13;3550005;39;102396;-39
2021/08/03 01:50:14;;;;;;;;;;;11.70;99.90;;;10.27;98.96;101079.16;3540577;39;102280;-39
2021/08/03 01:52:48;;;;;;;;;;;11.70;99.90;;;10.30;99.08;101084.19;3540254;39;102145;-39
2021/08/03 01:55:25;;;;;;;;;;;11.80;99.90;;;10.31;98.79;101074.97;3540511;39;104238;-39
2021/08/03 01:57:58;;;;;;;;;;;11.80;99.90;;;10.34;99.25;101077.28;3540358;39;102514;-39
2021/08/03 02:00:37;;;;;;;;;;;11.80;99.90;;;10.40;99.47;101072.03;3549768;39;102266;-39
2021/08/03 02:03:13;;;;;;;;;;;11.80;99.90;;;10.42;99.89;101073.56;3549765;39;102353;-39
2021/08/03 02:05:43;;;;;;;;;;;11.90;99.90;;;10.45;100.00;101064.97;3550065;39;102247;-39
2021/08/03 02:08:20;;;;;;;;;;;11.90;99.90;;;10.48;100.00;101067.28;3540496;39;102273;-39
2021/08/03 02:13:45;;;;;;;;;;;12.00;99.90;;;10.54;100.00;101068.34;3484811;40;104327;-39
2021/08/03 02:16:22;;;;;;;;;;;12.00;99.90;;;10.58;100.00;101068.75;3485888;39;103101;-39
2021/08/03 02:18:55;;;;;;;;;;;12.00;99.90;;;10.53;100.00;101063.09;3479186;40;102222;-39
2021/08/03 02:21:28;;;;;;;;;;;12.10;99.90;;;10.61;100.00;101073.81;3477853;40;103143;-40
2021/08/03 02:23:55;;;;;;;;;;;12.10;99.90;;;10.65;100.00;101066.91;3477613;40;103453;-38
2021/08/03 02:26:26;;;;;;;;;;;12.10;99.90;;;10.67;100.00;101064.81;3477976;40;102375;-39
2021/08/03 02:28:54;;;;;;;;;;;12.10;99.90;;;10.70;100.00;101061.66;3479411;40;103880;-39
2021/08/03 02:31:40;;;;;;;;;;;12.20;99.90;;;10.73;100.00;101055.78;3479620;40;104079;-39
2021/08/03 02:34:25;;;;;;;;;;;12.20;99.90;;;10.74;100.00;101062.06;3480008;40;102805;-39
2021/08/03 02:36:58;;;;;;;;;;;12.20;99.90;;;10.77;100.00;101067.97;3480390;40;103389;-39
2021/08/03 02:39:28;;;;;;;;;;;12.20;99.90;;;10.80;100.00;101066.72;3480623;40;102432;-39
2021/08/03 02:41:58;;;;;;;;;;;12.20;99.90;;;10.81;100.00;101067.53;3486806;40;102879;-39
2021/08/03 02:44:27;;;;;;;;;;;12.30;99.90;;;10.87;100.00;101063.97;3480943;39;102300;-39
2021/08/03 02:46:55;;;;;;;;;;;12.30;99.90;;;10.87;100.00;101055.78;3479968;40;104021;-39
2021/08/03 02:49:35;;;;;;;;;;;12.30;99.90;;;10.88;100.00;101052.84;3480926;40;102430;-39
2021/08/03 02:52:04;;;;;;;;;;;12.30;99.90;;;10.92;100.00;101058.75;3517374;39;102654;-39
2021/08/03 02:54:37;;;;;;;;;;;12.30;99.90;;;10.94;100.00;101056.66;3479793;40;103194;-39
2021/08/03 02:57:11;;;;;;;;;;;12.40;99.90;;;10.98;100.00;101055.16;3486987;40;103227;-39
2021/08/03 02:59:43;;;;;;;;;;;12.40;99.90;;;11.00;100.00;101050.34;3480062;40;102426;-39
2021/08/03 03:02:14;;;;;;;;;;;12.40;99.90;;;11.02;100.00;101040.03;3480485;40;104959;-39
2021/08/03 03:04:59;;;;;;;;;;;12.40;99.90;;;11.07;100.00;101042.16;3480043;40;103712;-39
2021/08/03 03:07:35;;;;;;;;;;;12.50;99.90;;;11.08;100.00;101035.66;3480658;40;102418;-39
2021/08/03 03:10:07;;;;;;;;;;;12.50;99.90;;;11.15;100.00;101046.56;3480756;39;102736;-39
2021/08/03 03:12:36;;;;;;;;;;;12.60;99.90;;;11.18;100.00;101040.69;3486419;40;104004;-39
2021/08/03 03:15:05;;;;;;;;;;;12.60;99.90;;;11.20;100.00;101044.03;3478375;40;103313;-39
2021/08/03 03:17:35;;;;;;;;;;;12.60;99.90;;;11.24;100.00;101042.56;3480361;39;102220;-39
2021/08/03 03:20:06;;;;;;;;;;;12.60;99.90;;;11.27;100.00;101050.31;3478490;40;102480;-39
2021/08/03 03:22:38;;;;;;;;;;;12.70;99.90;;;11.28;100.00;101052.00;3480473;39;102330;-39
2021/08/03 03:25:11;;;;;;;;;;;12.70;99.90;;;11.32;100.00;101052.44;3478009;40;102314;-39
2021/08/03 03:27:40;;;;;;;;;;;12.70;99.90;;;11.36;100.00;101045.50;3478317;40;104317;-39
2021/08/03 03:30:13;;;;;;;;;;;12.80;99.90;;;11.36;100.00;101043.59;3486346;40;102493;-39
2021/08/03 03:32:45;;;;;;;;;;;12.80;99.90;;;11.44;100.00;101036.25;3486704;40;102308;-39
2021/08/03 03:35:19;;;;;;;;;;;12.80;99.90;;;11.54;100.00;101031.16;3480373;39;102893;-39
2021/08/03 03:37:49;;;;;;;;;;;12.90;99.90;;;11.56;100.00;101026.31;3520896;39;102431;-39
2021/08/03 03:40:19;;;;;;;;;;;13.00;99.90;;;11.60;100.00;101032.22;3479539;40;103854;-39
2021/08/03 03:42:50;;;;;;;;;;;13.00;99.90;;;11.55;100.00;101023.81;3520254;39;104252;-39
2021/08/03 03:45:19;;;;;;;;;;;13.00;99.90;;;11.52;100.00;101025.06;3479642;40;102370;-39
2021/08/03 03:48:01;;;;;;;;;;;12.90;99.90;;;11.51;100.00;101028.84;3480137;39;102296;-39
2021/08/03 03:50:59;;;;;;;;;;;12.90;99.90;;;11.51;100.00;101024.22;3478311;40;102492;-40
2021/08/03 03:53:39;;;;;;;;;;;12.90;99.90;;;11.51;100.00;101017.94;3480210;39;103118;-40
2021/08/03 03:56:08;;;;;;;;;;;12.90;99.90;;;11.49;100.00;101017.31;3480362;40;102228;-39
2021/08/03 03:58:41;;;;;;;;;;;12.90;99.90;;;11.51;100.00;101024.22;3479954;39;103108;-39
2021/08/03 04:01:13;;;;;;;;;;;12.90;99.90;;;11.52;100.00;101022.34;3479102;40;103220;-39
2021/08/03 04:03:42;;;;;;;;;;;12.90;99.90;;;11.46;100.00;101020.47;3479993;39;102996;-40
2021/08/03 04:06:12;;;;;;;;;;;12.90;99.90;;;11.50;100.00;101027.19;3479949;39;102554;-39
2021/08/03 04:08:40;;;;;;;;;;;12.90;99.90;;;11.50;100.00;101025.28;3479277;40;103209;-39
2021/08/03 04:11:13;;;;;;;;;;;12.90;99.90;;;11.51;100.00;101026.13;3479844;39;102109;-39
2021/08/03 04:13:55;;;;;;;;;;;12.90;99.90;;;11.53;100.00;101024.03;3559797;39;103247;-39
2021/08/03 04:16:23;;;;;;;;;;;12.90;99.90;;;11.56;100.00;101029.06;3558369;39;102238;-40
2021/08/03 04:18:51;;;;;;;;;;;12.90;99.90;;;11.60;100.00;101021.28;3573932;39;103421;-40
2021/08/03 04:21:18;;;;;;;;;;;13.00;99.90;;;11.64;100.00;101027.97;3558202;39;102370;-40
2021/08/03 04:23:45;;;;;;;;;;;13.00;99.90;;;11.65;100.00;101016.00;3557565;39;102210;-38
2021/08/03 04:26:12;;;;;;;;;;;13.00;99.90;;;11.66;100.00;101021.22;3558077;39;102251;-40
2021/08/03 04:28:40;;;;;;;;;;;13.10;99.90;;;11.69;100.00;101013.69;3557819;39;102393;-41
2021/08/03 04:31:07;;;;;;;;;;;13.10;99.90;;;11.70;100.00;101018.91;3558047;39;102778;-41
2021/08/03 04:33:37;;;;;;;;;;;13.10;99.90;;;11.71;100.00;101017.88;3558019;39;103484;-40
2021/08/03 04:36:05;;;;;;;;;;;13.10;99.90;;;11.70;100.00;101013.44;3557897;39;102776;-41
2021/08/03 04:38:32;;;;;;;;;;;13.10;99.90;;;11.74;100.00;101020.16;3557897;39;103934;-40
2021/08/03 04:40:59;;;;;;;;;;;13.20;99.90;;;11.81;100.00;101017.41;3558009;39;102662;-40
2021/08/03 04:43:27;;;;;;;;;;;13.20;99.90;;;11.84;100.00;101019.72;3557627;39;102266;-41
2021/08/03 04:45:54;;;;;;;;;;;13.20;99.90;;;11.91;100.00;101022.44;3557758;39;102047;-40
2021/08/03 04:48:22;;;;;;;;;;;13.20;99.90;;;11.93;100.00;101026.63;3557853;39;102193;-40
2021/08/03 04:50:49;;;;;;;;;;;13.30;99.90;;;11.97;100.00;101020.72;3557855;39;102208;-40
2021/08/03 04:53:16;;;;;;;;;;;13.30;99.90;;;12.00;100.00;101014.81;3557831;39;102399;-40
2021/08/03 04:55:43;;;;;;;;;;;13.40;99.90;;;12.04;100.00;101019.66;3557531;39;102332;-40
2021/08/03 04:58:11;;;;;;;;;;;13.40;99.90;;;12.09;100.00;101016.28;3557982;39;103075;-40
2021/08/03 05:00:38;;;;;;;;;;;13.40;99.90;;;12.14;100.00;101021.91;3557759;39;102351;-40
2021/08/03 05:03:05;;;;;;;;;;;13.50;99.90;;;12.16;100.00;101019.81;3557472;39;103185;-40
2021/08/03 05:05:32;;;;;;;;;;;13.50;99.90;;;12.22;100.00;101021.69;3557274;39;102882;-40
2021/08/03 05:08:00;;;;;;;;;;;13.50;99.90;;;12.28;100.00;101019.94;3557557;39;103172;-40
2021/08/03 05:10:30;;;;;;;;;;;13.60;99.90;;;12.34;100.00;101020.97;3558100;39;102964;-40
2021/08/03 05:12:58;;;;;;;;;;;13.60;99.90;;;12.37;100.00;101020.53;3557197;39;103968;-40
2021/08/03 05:15:26;;;;;;;;;;;13.70;99.90;;;12.46;100.00;101023.84;3557694;39;102775;-40
2021/08/03 05:17:54;;;;;;;;;;;13.70;99.90;;;12.54;100.00;101023.59;3557579;39;103991;-41
2021/08/03 05:20:21;;;;;;;;;;;13.80;99.90;;;12.62;100.00;101022.47;3557544;39;102501;-40
2021/08/03 05:22:49;;;;;;;;;;;13.90;99.90;;;12.71;100.00;101026.63;3557334;39;103657;-41
2021/08/03 05:25:17;;;;;;;;;;;14.00;99.90;;;12.81;100.00;101020.66;3550838;39;103027;-40
2021/08/03 05:27:44;;;;;;;;;;;14.10;99.90;;;12.85;100.00;101021.06;3550987;39;103300;-40
2021/08/03 05:30:11;;;;;;;;;;;14.10;99.90;;;12.89;100.00;101023.13;3550591;39;102442;-40
2021/08/03 05:32:39;;;;;;;;;;;14.20;99.90;;;12.93;100.00;101018.03;3550652;39;103474;-40
2021/08/03 05:35:07;;;;;;;;;;;14.20;99.90;;;13.00;100.00;101018.84;3550813;39;102186;-40
2021/08/03 05:37:35;;;;;;;;;;;14.30;99.90;;;13.07;100.00;101005.06;3551358;39;102287;-40
2021/08/03 05:40:08;;;;;;;;;;;14.30;99.90;;;13.14;100.00;101011.34;3550679;39;102327;-41
2021/08/03 05:42:36;;;;;;;;;;;14.40;99.90;;;13.18;100.00;101008.97;3551131;39;102138;-40
2021/08/03 05:45:05;;;;;;;;;;;14.50;99.90;;;13.21;100.00;101000.28;3550898;39;102446;-40
2021/08/03 05:47:33;;;;;;;;;;;14.50;99.90;;;13.30;100.00;101001.69;3551080;39;102440;-41
2021/08/03 05:50:00;;;;;;;;;;;14.60;99.90;;;13.30;100.00;101006.31;3550805;39;102422;-41
2021/08/03 05:52:27;;;;;;;;;;;14.60;99.90;;;13.28;99.80;101006.56;3550760;39;102263;-40
2021/08/03 05:54:54;;;;;;;;;;;14.60;99.90;;;13.29;99.43;101002.75;3550651;39;102324;-40
2021/08/03 05:57:22;;;;;;;;;;;14.60;99.90;;;13.31;99.44;100997.88;3550874;39;102197;-40
2021/08/03 05:59:52;;;;;;;;;;;14.60;99.90;;;13.34;99.42;101002.91;3551332;39;102464;-40
2021/08/03 06:02:19;;;;;;;;;;;14.60;99.90;;;13.36;99.50;100995.28;3550274;39;102316;-41
2021/08/03 06:04:47;;;;;;;;;;;14.60;99.90;;;13.40;99.69;100998.44;3550513;39;102272;-41
2021/08/03 06:07:16;;;;;;;;;;;14.70;99.90;;;13.44;99.75;100999.69;3550298;39;103164;-41
2021/08/03 06:09:48;;;;;;;;;;;14.70;99.90;;;13.49;99.82;100998.97;3550723;39;102481;-40
2021/08/03 06:12:17;;;;;;;;;;;14.70;99.90;;;13.54;99.85;101006.53;3550719;39;103100;-40
2021/08/03 06:14:46;;;;;;;;;;;14.80;99.90;;;13.60;99.96;101005.59;3550957;39;102190;-41
2021/08/03 06:17:15;;;;;;;;;;;14.80;99.90;;;13.66;100.00;101001.97;3550629;39;102364;-40
2021/08/03 06:19:46;;;;;;;;;;;14.90;99.90;;;13.70;100.00;100992.22;3551175;39;102150;-41
2021/08/03 06:22:15;;;;;;;;;;;14.90;99.90;;;13.74;99.34;100995.31;3550268;39;103240;-41
2021/08/03 06:24:44;;;;;;;;;;;15.00;99.90;;;13.76;98.68;100995.91;3550850;39;102400;-41
2021/08/03 06:27:13;;;;;;;;;;;15.00;99.90;;;13.80;98.39;100997.16;3550853;39;103295;-40
2021/08/03 06:29:41;;;;;;;;;;;15.00;99.90;;;13.85;98.51;100996.44;3550607;39;102344;-41
2021/08/03 06:32:09;;;;;;;;;;;15.00;99.90;;;13.90;98.43;100999.34;3550529;39;102351;-41
2021/08/03 06:34:43;;;;;;;;;;;15.10;99.90;;;13.95;98.28;101002.25;3550708;39;102201;-40
2021/08/03 06:37:12;;;;;;;;;;;15.20;99.90;;;14.00;97.63;100998.78;3550061;39;102814;-40
2021/08/03 06:39:41;;;;;;;;;;;15.20;99.90;;;14.06;97.79;100997.88;3550596;39;102403;-40
2021/08/03 06:42:42;;;;;;;;;;;15.30;99.90;;;14.08;97.26;100996.56;3550460;39;102346;-41
2021/08/03 06:45:15;;;;;;;;;;;15.30;99.90;;;14.15;95.83;100996.50;3550572;39;102176;-41
2021/08/03 06:48:01;;;;;;;;;;;15.40;99.90;;;14.23;95.80;100998.91;3550829;39;103289;-41
2021/08/03 06:50:34;;;;;;;;;;;15.40;99.90;;;14.27;95.53;101001.16;3550515;39;102462;-41
2021/08/03 06:53:05;;;;;;;;;;;15.40;99.90;;;14.27;94.60;101003.91;3550416;39;104069;-41
2021/08/03 06:55:34;;;;;;;;;;;15.50;99.90;;;14.32;94.62;100991.19;3550697;39;102119;-41
2021/08/03 06:58:04;;;;;;;;;;;15.50;99.90;;;14.38;94.01;101000.41;3550726;39;103160;-41
2021/08/03 07:00:38;;;;;;;;;;;15.60;99.90;;;14.42;93.54;100998.00;3550363;39;102447;-41
2021/08/03 07:03:07;;;;;;;;;;;15.60;99.90;;;14.46;92.77;100997.31;3550495;39;104029;-41
2021/08/03 07:05:43;;;;;;;;;;;15.60;99.90;;;14.57;92.59;100992.06;3550045;39;102103;-38
2021/08/03 07:08:12;;;;;;;;;;;15.70;99.90;;;14.62;91.74;101000.47;3550433;39;103311;-39
2021/08/03 07:10:39;;;;;;;;;;;15.80;99.90;;;14.63;91.23;100996.63;3550583;39;102342;-39
2021/08/03 07:13:07;;;;;;;;;;;15.80;99.90;;;14.67;91.31;101001.41;3550103;39;102418;-39
2021/08/03 07:15:35;;;;;;;;;;;15.80;99.90;;;14.73;90.64;100996.91;3550196;39;102410;-41
2021/08/03 07:18:02;;;;;;;;;;;15.90;99.90;;;14.82;90.73;100995.50;3550397;39;102303;-41
2021/08/03 07:20:29;;;;;;;;;;;15.90;99.90;;;14.91;90.54;100995.97;3550121;39;102331;-41
2021/08/03 07:22:59;;;;;;;;;;;16.00;99.90;;;15.03;90.39;101000.66;3550336;39;102286;-40
2021/08/03 07:25:26;;;;;;;;;;;16.10;99.90;;;15.16;90.31;100992.16;3550372;39;102380;-41
2021/08/03 07:27:53;;;;;;;;;;;16.20;99.90;;;15.29;89.85;100993.84;3549967;39;102677;-40
2021/08/03 07:30:23;;;;;;;;;;;16.30;99.90;;;15.42;89.58;100991.94;3550620;39;102192;-41
2021/08/03 07:32:50;;;;;;;;;;;16.40;99.90;;;15.45;87.62;100996.94;3550227;39;103279;-41
2021/08/03 07:35:17;;;;;;;;;;;16.50;99.90;;;15.38;85.92;100984.16;3550212;39;102262;-41
2021/08/03 07:37:45;;;;;;;;;;;16.50;99.90;;;15.39;85.78;100996.00;3550253;39;102543;-41
2021/08/03 07:40:13;;;;;;;;;;;16.40;99.90;;;15.39;85.77;100996.00;3550243;39;102297;-40
2021/08/03 07:42:40;;;;;;;;;;;16.50;99.90;;;15.36;86.69;100989.03;3550249;39;102268;-41
2021/08/03 07:45:08;;;;;;;;;;;16.40;99.90;;;15.41;84.51;100990.25;3550013;39;102841;-38
2021/08/03 07:47:35;;;;;;;;;;;16.50;99.90;;;15.42;84.66;100997.44;3550098;39;102499;-39
2021/08/03 07:50:03;;;;;;;;;;;16.50;99.90;;;15.40;83.27;100994.91;3550210;39;103010;-41
2021/08/03 07:52:32;;;;;;;;;;;16.50;99.90;;;15.48;84.06;100990.97;3550257;39;102465;-41
2021/08/03 07:54:59;;;;;;;;;;;16.60;99.90;;;15.58;86.02;100993.91;3550546;39;102385;-40
2021/08/03 07:57:26;;;;;;;;;;;16.60;99.90;;;15.63;83.93;100996.78;3550229;39;103508;-41
2021/08/03 07:59:53;;;;;;;;;;;16.70;99.90;;;15.72;82.83;100996.41;3550599;39;102883;-41
2021/08/03 08:02:21;;;;;;;;;;;16.70;99.90;;;15.81;81.02;100994.94;3550092;39;103996;-41
2021/08/03 08:04:49;;;;;;;;;;;16.80;99.90;;;15.88;80.08;100994.81;3550099;39;102716;-41
2021/08/03 08:07:16;;;;;;;;;;;16.80;99.90;;;15.98;80.90;100994.22;3550002;39;103151;-41
2021/08/03 08:09:43;;;;;;;;;;;16.90;99.90;;;16.08;80.84;100991.66;3549670;39;102734;-41
2021/08/03 08:12:11;;;;;;;;;;;17.00;99.90;;;16.15;81.15;100988.75;3583002;22;107059;-39
2021/08/03 08:14:38;;;;;;;;;;;17.10;99.90;;;16.14;79.40;100993.41;3535977;39;102464;-39
2021/08/03 08:17:06;;;;;;;;;;;17.10;99.90;;;16.14;81.29;100987.91;3540223;39;102264;-40
2021/08/03 08:19:33;;;;;;;;;;;17.10;99.90;;;16.07;81.69;100978.97;3540228;39;101630;-39
2021/08/03 08:22:00;;;;;;;;;;;17.10;99.90;;;16.08;81.98;100978.75;3540321;39;103432;-39
2021/08/03 08:24:28;;;;;;;;;;;17.10;99.90;;;16.16;82.80;100980.25;3540377;39;102785;-39
2021/08/03 08:26:55;;;;;;;;;;;17.10;99.90;;;16.24;81.39;100968.84;3540267;39;103429;-39
2021/08/03 08:29:23;;;;;;;;;;;17.30;99.90;;;16.23;77.41;100969.09;3540256;39;102400;-39
2021/08/03 08:31:50;;;;;;;;;;;17.30;99.90;;;16.38;80.31;100963.88;3540052;39;104055;-39
2021/08/03 08:34:19;;;;;;;;;;;17.40;99.90;;;16.51;79.82;100965.47;3539788;39;102802;-39
2021/08/03 08:36:46;;;;;;;;;;;17.50;99.90;;;16.77;82.54;100968.66;3539963;39;104286;-39
2021/08/03 08:39:13;;;;;;;;;;;17.60;99.90;;;17.03;75.58;100963.56;3540323;39;102242;-39
2021/08/03 08:41:41;;;;;;;;;;;17.90;99.90;;;17.37;72.42;100966.25;3540276;39;103247;-39
2021/08/03 08:44:10;;;;;;;;;;;18.10;99.90;;;17.53;69.52;100958.19;3540207;39;102620;-39
2021/08/03 08:46:38;;;;;;;;;;;18.30;99.90;;;17.77;74.37;100952.38;3539945;39;103136;-39
2021/08/03 08:49:07;;;;;;;;;;;18.50;99.90;;;17.93;72.41;100954.25;3540742;39;102176;-41
2021/08/03 08:51:36;;;;;;;;;;;18.70;99.90;;;17.91;70.48;100950.91;3539845;39;102297;-39
2021/08/03 08:54:04;;;;;;;;;;;18.80;99.90;;;18.05;71.52;100953.31;3540006;39;102444;-40
2021/08/03 08:56:31;;;;;;;;;;;18.90;99.90;;;18.07;68.75;100954.69;3540975;39;102270;-39
2021/08/03 08:58:58;;;;;;;;;;;18.90;99.90;;;18.18;70.48;100954.81;3540587;39;102373;-39
2021/08/03 09:01:26;;;;;;;;;;;19.00;99.90;;;18.22;69.88;100956.78;3541105;39;102305;-39
2021/08/03 09:03:53;;;;;;;;;;;19.10;99.90;;;18.24;67.46;100954.59;3541388;39;102493;-39
2021/08/03 09:06:21;;;;;;;;;;;19.10;99.90;;;18.21;66.32;100952.34;3541200;39;102801;-40
2021/08/03 09:08:50;;;;;;;;;;;19.00;99.90;;;18.46;70.16;100953.69;3540635;39;102360;-39
2021/08/03 09:11:20;;;;;;;;;;;19.20;99.90;;;18.62;67.26;100949.13;3541615;39;103305;-39
2021/08/03 09:13:56;;;;;;;;;;;19.40;99.90;;;18.74;62.49;100951.72;3541337;39;102199;-40
2021/08/03 09:16:26;;;;;;;;;;;19.50;99.90;;;18.94;65.20;100948.25;3541665;39;104175;-39
2021/08/03 09:18:54;;;;;;;;;;;19.70;99.90;;;18.98;68.06;100945.84;3541713;39;102361;-39
2021/08/03 09:21:27;;;;;;;;;;;19.80;99.90;;;19.05;58.25;100942.84;3541434;39;103913;-39
2021/08/03 09:24:00;;;;;;;;;;;19.80;99.90;;;19.30;62.20;100947.66;3541271;39;102982;-40
2021/08/03 09:26:49;;;;;;;;;;;20.00;99.90;;;19.50;65.13;100937.81;3541421;39;104203;-40
2021/08/03 09:29:17;;;;;;;;;;;20.20;99.90;;;19.56;63.20;100945.03;3541379;39;102297;-40
2021/08/03 09:31:57;;;;;;;;;;;20.30;99.90;;;19.40;60.62;100944.13;3541228;39;103272;-39
2021/08/03 09:34:24;;;;;;;;;;;20.30;99.90;;;19.38;62.82;100946.34;3541222;39;102204;-40
2021/08/03 09:36:59;;;;;;;;;;;20.30;99.90;;;19.57;63.40;100946.69;3541073;39;102327;-40
2021/08/03 09:39:41;;;;;;;;;;;20.30;99.90;;;19.75;60.99;100939.03;3541635;39;102339;-40
2021/08/03 09:42:29;;;;;;;;;;;20.50;99.90;;;19.73;56.85;100935.69;3541427;39;102484;-39
2021/08/03 09:45:00;;;;;;;;;;;20.50;99.90;;;19.87;62.67;100936.81;3541120;39;102757;-39
2021/08/03 09:47:32;;;;;;;;;;;20.60;99.90;;;20.00;58.14;100937.47;3541610;39;103177;-42
2021/08/03 09:50:01;;;;;;;;;;;20.70;99.90;;;20.09;60.75;100933.88;3541283;39;102889;-39
2021/08/03 09:52:31;;;;;;;;;;;20.80;99.90;;;20.02;62.37;100938.84;3541573;39;102157;-41
2021/08/03 09:55:15;;;;;;;;;;;20.80;99.90;;;19.98;60.94;100934.94;3539910;39;102415;-41
2021/08/03 09:57:44;;;;;;;;;;;20.70;99.90;;;20.25;58.38;100939.44;3541529;39;102299;-41
2021/08/03 10:00:37;;;;;;;;;;;20.90;99.90;;;20.58;63.05;100933.63;3541227;39;102164;-40
2021/08/03 10:03:05;;;;;;;;;;;21.10;99.90;;;20.66;55.49;100924.75;3541276;39;102242;-40
2021/08/03 10:05:34;;;;;;;;;;;21.30;99.90;;;20.98;55.33;100927.25;3540986;39;102968;-41
2021/08/03 10:08:02;;;;;;;;;;;21.60;99.90;;;20.84;56.93;100931.72;3541132;39;102320;-39
2021/08/03 10:10:32;;;;;;;;;;;21.50;99.90;;;21.03;56.51;100928.34;3541595;39;102427;-40
2021/08/03 10:13:00;;;;;;;;;;;21.70;99.90;;;21.15;52.67;100928.88;3541115;39;102503;-38
2021/08/03 10:15:30;;;;;;;;;;;21.90;99.90;;;21.30;54.37;100928.00;3540736;39;102822;-39
2021/08/03 10:17:58;;;;;;;;;;;22.00;99.90;;;21.25;51.11;100919.69;3541186;39;102276;-40
2021/08/03 10:20:26;;;;;;;;;;;22.00;99.90;;;21.12;56.84;100929.44;3541373;39;102350;-39
2021/08/03 10:22:59;;;;;;;;;;;21.90;99.90;;;21.08;53.16;100926.38;3540900;39;102815;-39
2021/08/03 10:25:32;;;;;;;;;;;22.00;99.90;;;21.07;52.88;100921.09;3541316;39;102138;-40
2021/08/03 10:28:22;;;;;;;;;;;22.00;99.90;;;20.92;51.70;100925.59;3541365;39;102163;-39
2021/08/03 10:30:49;;;;;;;;;;;21.90;99.90;;;21.06;53.38;100923.06;3541026;39;102254;-40
2021/08/03 10:33:42;;;;;;;;;;;21.90;99.90;;;21.20;52.06;100923.31;3540098;39;104480;-40
2021/08/03 10:36:41;;;;;;;;;;;21.90;99.90;;;21.15;56.46;100919.72;3540995;39;102631;-40
2021/08/03 10:39:08;;;;;;;;;;;21.90;99.90;;;21.23;54.05;100913.59;3541405;39;102190;-40
2021/08/03 10:41:57;;;;;;;;;;;22.00;99.90;;;21.23;57.62;100919.16;3541046;39;102114;-40
2021/08/03 10:44:40;;;;;;;;;;;22.00;99.90;;;20.97;54.20;100916.44;3540981;39;102295;-42
2021/08/03 10:47:43;;;;;;;;;;;21.90;99.90;;;20.80;56.67;100920.34;3541354;39;102258;-40
2021/08/03 10:50:32;;;;;;;;;;;21.80;99.90;;;20.71;53.63;100910.91;3509012;40;103134;-39
2021/08/03 10:53:03;;;;;;;;;;;21.70;99.90;;;20.62;52.32;100915.34;3539350;39;102973;-40
2021/08/03 10:55:43;;;;;;;;;;;21.70;99.90;;;20.47;51.07;100908.72;3541519;39;103272;-40
2021/08/03 10:58:10;;;;;;;;;;;21.50;99.90;;;20.37;54.42;100908.69;3540839;39;102617;-40
2021/08/03 11:00:48;;;;;;;;;;;21.30;99.90;;;20.19;55.32;100913.69;3540942;39;103106;-39
2021/08/03 11:03:30;;;;;;;;;;;21.20;99.90;;;19.99;54.90;100922.78;3540953;39;102969;-40
2021/08/03 11:06:18;;;;;;;;;;;21.10;99.90;;;19.89;53.83;100914.41;3540745;39;103126;-40
2021/08/03 11:08:47;;;;;;;;;;;20.90;99.90;;;19.76;57.41;100907.47;3540982;39;102405;-40
2021/08/03 11:11:25;;;;;;;;;;;20.80;99.90;;;19.61;54.41;100914.59;3541112;39;102375;-39
2021/08/03 11:14:06;;;;;;;;;;;20.70;99.90;;;19.46;55.61;100915.38;3541370;39;102318;-40
2021/08/03 11:16:33;;;;;;;;;;;20.50;99.90;;;19.37;57.62;100915.09;3541134;39;102257;-40
2021/08/03 11:19:05;;;;;;;;;;;20.40;99.90;;;19.36;57.66;100907.06;3540991;39;102237;-40
2021/08/03 11:21:44;;;;;;;;;;;20.40;99.90;;;19.33;59.54;100915.88;3540627;39;103219;-40